Time;durP1;ratioP1;P1;durP2;ratioP2;P2;SDS_P1;SDS_P2;PMS_P1;PMS_P2;Temp;Humidity;BMP_temperature;BMP_pressure;BME280_temperature;BME280_humidity;BME280_pressure;Samples;Min_cycle;Max_cycle;Signal;HPM_P1;HPM_P2
2023/07/14 00:00:42;;;;;;;10.43;6.47;;;;;;;16.47;100.00;101606.75;5262659;28;20120;-72
2023/07/14 00:03:16;;;;;;;10.48;7.13;;;;;;;16.44;100.00;101606.81;5261274;28;20110;-73
2023/07/14 00:05:48;;;;;;;8.75;6.97;;;;;;;16.35;100.00;101601.78;5262706;28;20440;-71
2023/07/14 00:08:22;;;;;;;11.93;6.40;;;;;;;16.35;100.00;101601.78;5262663;28;20033;-72
2023/07/14 00:10:55;;;;;;;9.85;6.72;;;;;;;16.30;100.00;101593.13;5262542;28;20115;-72
2023/07/14 00:13:27;;;;;;;;;;;;;;;16.50;100.00;101604.03;5261609;28;20031;-71
2023/07/14 00:15:59;;;;;;;10.43;8.52;;;;;;;16.38;100.00;101596.44;5262440;28;20294;-72
2023/07/14 00:18:30;;;;;;;9.13;7.35;;;;;;;16.28;100.00;101594.94;5260435;28;20075;-71
2023/07/14 00:21:02;;;;;;;10.20;7.17;;;;;;;16.36;100.00;101592.97;5262445;28;20025;-72
2023/07/14 00:23:33;;;;;;;9.77;6.93;;;;;;;16.22;100.00;101586.25;5264688;28;20033;-72
2023/07/14 00:26:10;;;;;;;14.57;7.17;;;;;;;16.21;100.00;101581.03;5266672;28;20392;-71
2023/07/14 00:28:42;;;;;;;9.98;6.88;;;;;;;16.21;100.00;101584.56;5266361;28;20029;-72
2023/07/14 00:31:16;;;;;;;9.95;7.25;;;;;;;16.27;100.00;101586.16;5266514;28;20476;-71
2023/07/14 00:33:49;;;;;;;8.93;7.40;;;;;;;16.30;100.00;101586.09;5266161;28;20028;-72
2023/07/14 00:36:22;;;;;;;8.32;6.95;;;;;;;16.17;100.00;101589.91;5266402;28;20025;-71
2023/07/14 00:38:53;;;;;;;9.27;7.43;;;;;;;16.14;100.00;101584.72;5266354;28;20144;-72
2023/07/14 00:41:24;;;;;;;11.70;9.17;;;;;;;16.18;100.00;101589.00;5266218;28;20116;-71
2023/07/14 00:43:56;;;;;;;15.03;10.00;;;;;;;16.19;100.00;101585.47;5266572;28;20087;-72
2023/07/14 00:46:32;;;;;;;8.98;7.35;;;;;;;16.09;100.00;101574.31;5265984;28;20028;-71
2023/07/14 00:49:10;;;;;;;11.48;8.05;;;;;;;16.13;100.00;101570.72;5265778;28;20032;-71
2023/07/14 00:51:43;;;;;;;8.35;6.20;;;;;;;16.15;100.00;101573.31;5265017;28;20021;-72
2023/07/14 00:54:26;;;;;;;10.07;7.47;;;;;;;16.23;100.00;101579.25;5266066;28;20376;-72
2023/07/14 00:56:57;;;;;;;7.88;6.53;;;;;;;16.20;100.00;101571.44;5266311;28;20095;-72
2023/07/14 00:59:34;;;;;;;11.60;6.80;;;;;;;16.17;100.00;101576.75;5265966;28;20071;-72
2023/07/14 01:02:11;;;;;;;9.80;7.10;;;;;;;16.13;100.00;101577.72;5266021;28;20507;-72
2023/07/14 01:05:06;;;;;;;8.45;6.57;;;;;;;16.29;100.00;101573.81;5265771;28;20032;-72
2023/07/14 01:07:41;;;;;;;9.57;6.90;;;;;;;16.25;100.00;101572.19;5266017;28;20345;-72
2023/07/14 01:10:16;;;;;;;13.75;7.32;;;;;;;16.20;100.00;101577.56;5265817;28;20468;-73
2023/07/14 01:12:57;;;;;;;11.50;7.50;;;;;;;16.22;100.00;101581.00;5265752;28;20471;-72
2023/07/14 01:15:29;;;;;;;8.07;6.85;;;;;;;16.28;100.00;101576.53;5265752;28;20063;-71
2023/07/14 01:18:00;;;;;;;7.73;6.77;;;;;;;16.27;100.00;101572.16;5265143;28;20064;-71
2023/07/14 01:20:31;;;;;;;9.30;7.30;;;;;;;16.26;100.00;101565.16;5264347;28;20033;-72
2023/07/14 01:23:26;;;;;;;9.97;7.53;;;;;;;16.23;100.00;101566.09;5265554;28;20504;-72
2023/07/14 01:26:16;;;;;;;11.30;7.85;;;;;;;16.26;100.00;101557.25;5265112;28;20094;-72
2023/07/14 01:28:48;;;;;;;9.95;7.30;;;;;;;16.18;100.00;101555.69;5265708;28;20107;-72
2023/07/14 01:31:22;;;;;;;9.07;8.13;;;;;;;16.22;100.00;101562.59;5264513;28;20124;-72
2023/07/14 01:33:53;;;;;;;9.20;7.00;;;;;;;16.11;100.00;101561.13;5264529;28;20036;-72
2023/07/14 01:36:25;;;;;;;8.10;7.30;;;;;;;16.07;100.00;101557.72;5264848;28;20029;-73
2023/07/14 01:38:57;;;;;;;8.43;7.07;;;;;;;16.16;100.00;101561.88;5265026;28;20057;-72
2023/07/14 01:41:28;;;;;;;9.18;7.32;;;;;;;16.17;100.00;101553.94;5264804;28;20048;-72
2023/07/14 01:44:03;;;;;;;9.80;6.90;;;;;;;16.20;100.00;101553.03;5265202;28;20442;-72
2023/07/14 01:46:35;;;;;;;10.88;7.63;;;;;;;16.22;100.00;101551.22;5265110;28;20036;-71
2023/07/14 01:49:29;;;;;;;8.93;8.00;;;;;;;16.18;100.00;101549.53;5263279;28;20041;-73
2023/07/14 01:52:04;;;;;;;10.48;8.02;;;;;;;16.15;100.00;101549.63;5265070;28;20123;-72
2023/07/14 01:54:41;;;;;;;10.27;7.93;;;;;;;16.06;100.00;101549.84;5264915;28;20430;-72
2023/07/14 01:57:17;;;;;;;12.05;8.15;;;;;;;16.09;100.00;101548.00;5265232;28;20052;-72
2023/07/14 01:59:53;;;;;;;8.13;7.13;;;;;;;16.12;100.00;101547.09;5264396;28;20143;-72
2023/07/14 02:02:33;;;;;;;13.45;8.07;;;;;;;16.07;100.00;101547.19;5264776;28;20025;-71
2023/07/14 02:05:33;;;;;;;10.18;7.78;;;;;;;16.07;100.00;101555.06;5264746;28;20108;-73
2023/07/14 02:08:06;;;;;;;8.00;7.20;;;;;;;15.94;100.00;101543.97;5260153;28;20044;-72
2023/07/14 02:10:37;;;;;;;9.52;7.22;;;;;;;15.95;100.00;101550.09;5264780;28;20448;-72
2023/07/14 02:13:11;;;;;;;9.93;7.53;;;;;;;15.91;100.00;101544.03;5264511;28;20112;-73
2023/07/14 02:15:42;;;;;;;9.23;8.13;;;;;;;15.84;100.00;101542.44;5264179;28;20051;-72
2023/07/14 02:18:19;;;;;;;9.17;8.17;;;;;;;15.80;100.00;101541.66;5263904;28;20028;-70
2023/07/14 02:20:51;;;;;;;12.45;7.70;;;;;;;15.68;100.00;101541.88;5264430;28;20098;-72
2023/07/14 02:23:26;;;;;;;11.80;8.45;;;;;;;15.59;100.00;101532.44;5264378;28;20063;-71
2023/07/14 02:26:16;;;;;;;9.70;8.77;;;;;;;15.65;100.00;101536.72;5264225;28;20029;-72
2023/07/14 02:28:47;;;;;;;11.18;8.02;;;;;;;15.59;100.00;101537.69;5264313;28;20484;-72
2023/07/14 02:31:25;;;;;;;11.87;6.93;;;;;;;15.61;100.00;101535.03;5264231;28;20110;-72
2023/07/14 02:33:56;;;;;;;10.65;8.23;;;;;;;15.48;100.00;101537.06;5264093;28;20041;-72
2023/07/14 02:36:44;;;;;;;8.60;7.63;;;;;;;15.42;100.00;101534.56;5264044;28;20043;-72
2023/07/14 02:39:15;;;;;;;8.98;7.85;;;;;;;15.29;100.00;101534.84;5263424;28;20123;-72
2023/07/14 02:41:48;;;;;;;9.63;7.80;;;;;;;15.28;100.00;101530.47;5263995;28;20112;-72
2023/07/14 02:44:25;;;;;;;10.88;8.05;;;;;;;15.20;100.00;101534.13;5264039;28;20036;-73
2023/07/14 02:47:02;;;;;;;8.88;7.63;;;;;;;15.17;100.00;101536.84;5263607;28;20132;-72
2023/07/14 02:49:33;;;;;;;12.32;7.90;;;;;;;15.20;100.00;101532.41;5263586;28;20115;-72
2023/07/14 02:52:05;;;;;;;8.93;8.07;;;;;;;15.31;100.00;101537.41;5263766;28;20187;-71
2023/07/14 02:54:37;;;;;;;10.97;7.77;;;;;;;15.19;100.00;101532.41;5262472;28;20106;-71
2023/07/14 02:57:09;;;;;;;9.45;8.50;;;;;;;15.31;100.00;101534.78;5263583;28;20044;-73
2023/07/14 02:59:40;;;;;;;8.97;8.07;;;;;;;15.33;100.00;101525.13;5263555;28;20037;-72
2023/07/14 03:02:11;;;;;;;11.80;8.10;;;;;;;15.44;100.00;101530.13;5263254;28;20108;-73
2023/07/14 03:04:43;;;;;;;9.60;8.53;;;;;;;15.45;100.00;101531.88;5263465;28;20041;-71
2023/07/14 03:07:14;;;;;;;12.00;8.70;;;;;;;15.49;100.00;101536.19;5263459;28;20052;-72
2023/07/14 03:09:45;;;;;;;9.33;7.93;;;;;;;15.54;100.00;101536.09;5263476;28;20037;-72
2023/07/14 03:12:18;;;;;;;9.93;7.93;;;;;;;15.55;100.00;101540.44;5263392;28;20059;-73
2023/07/14 03:14:50;;;;;;;;;;;;;;;15.66;100.00;101541.06;5263799;28;20029;-72
2023/07/14 03:17:22;;;;;;;11.13;7.95;;;;;;;15.53;100.00;101532.56;5263250;28;19919;-73
2023/07/14 03:19:53;;;;;;;10.90;7.83;;;;;;;15.53;100.00;101527.31;5262796;28;20025;-72
2023/07/14 03:22:26;;;;;;;8.57;7.23;;;;;;;15.53;100.00;101526.47;5262864;28;20488;-73
2023/07/14 03:25:00;;;;;;;10.73;7.43;;;;;;;15.52;100.00;101525.59;5263118;28;20473;-73
2023/07/14 03:27:32;;;;;;;9.73;7.53;;;;;;;15.44;100.00;101520.50;5262715;28;20041;-73
2023/07/14 03:30:03;;;;;;;17.20;7.70;;;;;;;15.46;100.00;101520.47;5263057;28;20362;-74
2023/07/14 03:32:35;;;;;;;8.93;7.07;;;;;;;15.48;100.00;101518.69;5263008;28;20024;-72
2023/07/14 03:35:07;;;;;;;9.70;6.53;;;;;;;15.43;100.00;101517.91;5262975;28;20032;-73
2023/07/14 03:37:40;;;;;;;7.80;5.77;;;;;;;15.39;100.00;101508.34;5262946;28;20047;-73
2023/07/14 03:40:12;;;;;;;11.45;6.93;;;;;;;15.40;100.00;101512.72;5262498;28;20287;-73
2023/07/14 03:42:44;;;;;;;11.07;6.22;;;;;;;15.40;100.00;101504.84;5262652;28;20021;-74
2023/07/14 03:45:15;;;;;;;7.03;5.57;;;;;;;15.38;100.00;101504.88;5263156;28;20052;-72
2023/07/14 03:47:47;;;;;;;8.20;5.40;;;;;;;15.38;100.00;101507.50;5262580;28;20029;-73
2023/07/14 03:50:18;;;;;;;10.67;6.40;;;;;;;15.27;100.00;101497.22;5262390;28;20519;-72
2023/07/14 03:52:49;;;;;;;6.53;5.50;;;;;;;15.32;100.00;101500.59;5262767;28;20044;-72
2023/07/14 03:55:21;;;;;;;8.33;5.63;;;;;;;15.31;100.00;101501.53;5262783;28;20032;-73
2023/07/14 03:57:52;;;;;;;8.47;5.63;;;;;;;15.35;100.00;101502.31;5262035;28;20075;-73
2023/07/14 04:00:23;;;;;;;9.67;5.40;;;;;;;15.30;100.00;101505.03;5262603;28;20068;-71
2023/07/14 04:02:56;;;;;;;11.03;6.77;;;;;;;15.35;100.00;101501.47;5262666;28;20056;-71
2023/07/14 04:05:27;;;;;;;9.65;5.80;;;;;;;15.30;100.00;101499.78;5262510;28;20033;-73
2023/07/14 04:07:58;;;;;;;10.00;5.83;;;;;;;15.31;100.00;101498.88;5262607;28;20043;-71
2023/07/14 04:10:30;;;;;;;13.13;7.23;;;;;;;15.37;100.00;101499.66;5262528;28;20044;-72
2023/07/14 04:13:02;;;;;;;12.00;6.93;;;;;;;15.42;100.00;101503.94;5262300;28;20029;-73
2023/07/14 04:15:33;;;;;;;12.68;8.18;;;;;;;15.42;100.00;101501.31;5262461;28;20492;-72
2023/07/14 04:18:05;;;;;;;12.97;7.67;;;;;;;15.36;100.00;101500.53;5262088;28;20040;-73
2023/07/14 04:20:36;;;;;;;12.20;6.13;;;;;;;15.42;100.00;101495.16;5262560;28;20029;-73
2023/07/14 04:23:08;;;;;;;12.33;5.70;;;;;;;15.43;100.00;101499.53;5262457;28;20037;-72
2023/07/14 04:25:39;;;;;;;9.20;5.33;;;;;;;15.48;100.00;101495.03;5262388;28;20064;-73
2023/07/14 04:28:11;;;;;;;9.83;4.87;;;;;;;15.47;100.00;101498.53;5262472;28;20033;-73
2023/07/14 04:30:42;;;;;;;8.63;6.17;;;;;;;15.43;100.00;101492.50;5262302;28;20033;-72
2023/07/14 04:33:14;;;;;;;8.47;4.73;;;;;;;15.52;100.00;101494.09;5262040;28;20268;-73
2023/07/14 04:35:45;;;;;;;11.47;5.63;;;;;;;15.44;100.00;101496.88;5262264;28;20029;-73
2023/07/14 04:38:17;;;;;;;12.40;6.87;;;;;;;15.39;100.00;101492.59;5266350;28;20037;-73
2023/07/14 04:40:49;;;;;;;10.13;6.80;;;;;;;15.33;98.77;101490.97;5283016;28;20028;-72
2023/07/14 04:43:21;;;;;;;13.02;5.85;;;;;;;15.32;99.06;101486.63;5283077;28;20054;-72
2023/07/14 04:45:52;;;;;;;8.03;4.77;;;;;;;15.34;99.75;101492.69;5283580;28;20040;-72
2023/07/14 04:48:24;;;;;;;11.73;5.63;;;;;;;15.27;99.92;101489.34;5282728;28;20036;-73
2023/07/14 04:50:55;;;;;;;12.23;5.07;;;;;;;15.23;99.74;101495.56;5283052;28;20131;-72
2023/07/14 04:53:26;;;;;;;9.03;5.77;;;;;;;15.18;99.86;101504.41;5283006;28;20032;-72
2023/07/14 04:55:58;;;;;;;14.47;7.17;;;;;;;15.16;99.79;101504.44;5282689;28;20020;-72
2023/07/14 04:58:29;;;;;;;10.53;5.50;;;;;;;15.17;100.00;101502.72;5282824;28;20116;-73
2023/07/14 05:01:01;;;;;;;13.23;6.17;;;;;;;15.10;99.40;101497.56;5283009;28;20036;-73
2023/07/14 05:03:32;;;;;;;10.60;6.55;;;;;;;15.13;99.66;101501.88;5282866;28;20033;-72
2023/07/14 05:06:04;;;;;;;18.70;5.80;;;;;;;15.14;99.34;101501.00;5283195;28;20207;-72
2023/07/14 05:08:36;;;;;;;9.60;5.17;;;;;;;15.22;99.46;101492.97;5282097;28;20104;-73
2023/07/14 05:11:07;;;;;;;10.70;4.88;;;;;;;15.28;99.51;101492.84;5286647;28;20033;-72
2023/07/14 05:13:38;;;;;;;12.57;4.97;;;;;;;15.26;97.63;101492.88;5285319;28;20360;-72
2023/07/14 05:16:10;;;;;;;9.53;5.93;;;;;;;15.32;98.85;101491.88;5286499;28;20033;-72
2023/07/14 05:18:41;;;;;;;14.50;7.20;;;;;;;15.40;98.09;101481.19;5286005;28;20017;-71
2023/07/14 05:21:13;;;;;;;14.57;6.10;;;;;;;15.38;97.41;101478.59;5302027;28;20052;-72
2023/07/14 05:23:44;;;;;;;12.57;6.93;;;;;;;15.55;97.43;101480.84;5286637;28;20044;-72
2023/07/14 05:26:15;;;;;;;13.10;6.97;;;;;;;15.72;96.38;101479.63;5286319;28;20038;-73
2023/07/14 05:28:47;;;;;;;13.57;7.17;;;;;;;15.82;96.33;101484.63;5286454;28;20083;-73
2023/07/14 05:31:18;;;;;;;11.43;5.97;;;;;;;15.85;95.48;101484.56;5286341;28;20043;-72
2023/07/14 05:33:50;;;;;;;8.67;5.33;;;;;;;15.84;94.49;101487.22;5286184;28;20071;-72
2023/07/14 05:36:21;;;;;;;9.43;4.90;;;;;;;15.88;93.56;101490.69;5286134;28;20388;-73
2023/07/14 05:38:52;;;;;;;9.20;4.13;;;;;;;15.85;92.72;101488.97;5285707;28;20052;-74
2023/07/14 05:41:24;;;;;;;7.43;4.63;;;;;;;15.88;92.38;101491.53;5285958;28;20482;-72
2023/07/14 05:43:55;;;;;;;7.37;4.43;;;;;;;15.84;92.89;101484.59;5285753;28;20058;-72
2023/07/14 05:46:26;;;;;;;9.43;4.03;;;;;;;15.92;93.51;101481.78;5285974;28;20032;-72
2023/07/14 05:48:58;;;;;;;7.77;4.57;;;;;;;15.94;92.74;101480.88;5285506;28;20036;-72
2023/07/14 05:51:29;;;;;;;10.17;4.30;;;;;;;15.99;92.26;101473.72;5285560;28;20031;-73
2023/07/14 05:54:00;;;;;;;8.70;4.50;;;;;;;16.11;93.11;101480.44;5284581;28;20120;-73
2023/07/14 05:56:32;;;;;;;10.70;4.27;;;;;;;16.19;91.02;101475.00;5284205;28;20025;-71
2023/07/14 05:59:03;;;;;;;8.00;4.47;;;;;;;16.20;91.80;101480.22;5285709;28;20060;-73
2023/07/14 06:01:34;;;;;;;8.93;4.27;;;;;;;16.29;89.72;101483.53;5279302;28;20039;-72
2023/07/14 06:04:06;;;;;;;8.13;4.23;;;;;;;16.21;88.99;101478.44;5284827;28;20060;-71
2023/07/14 06:06:37;;;;;;;9.23;3.93;;;;;;;16.20;89.52;101487.25;5283379;28;20102;-72
2023/07/14 06:09:09;;;;;;;7.37;4.80;;;;;;;16.07;89.22;101485.81;5283781;28;20145;-73
2023/07/14 06:11:41;;;;;;;8.95;4.85;;;;;;;16.01;87.63;101494.72;5284234;28;20083;-71
2023/07/14 06:14:12;;;;;;;6.72;3.90;;;;;;;16.12;88.81;101483.97;5283530;28;20028;-72
2023/07/14 06:16:44;;;;;;;7.47;4.57;;;;;;;16.11;89.90;101484.84;5283651;28;20025;-72
2023/07/14 06:19:15;;;;;;;6.40;4.10;;;;;;;16.30;90.32;101487.88;5284315;28;20039;-71
2023/07/14 06:21:46;;;;;;;9.07;5.33;;;;;;;16.30;89.09;101480.84;5282060;28;20032;-72
2023/07/14 06:24:18;;;;;;;8.77;4.60;;;;;;;16.51;90.78;101475.94;5284964;28;20388;-72
2023/07/14 06:26:50;;;;;;;9.97;4.60;;;;;;;16.67;90.83;101481.66;5283920;28;20080;-72
2023/07/14 06:29:22;;;;;;;10.88;4.47;;;;;;;16.69;89.83;101479.84;5282554;28;20068;-73
2023/07/14 06:31:53;;;;;;;7.07;4.20;;;;;;;16.81;87.97;101478.63;5279202;28;20074;-72
2023/07/14 06:34:25;;;;;;;12.07;5.00;;;;;;;16.96;88.14;101478.25;5282965;28;20371;-72
2023/07/14 06:36:57;;;;;;;8.20;4.57;;;;;;;17.06;86.55;101489.38;5283724;28;20029;-73
2023/07/14 06:39:29;;;;;;;14.05;5.30;;;;;;;17.12;86.42;101490.06;5282977;28;20060;-72
2023/07/14 06:42:01;;;;;;;8.43;4.47;;;;;;;17.24;84.96;101480.06;5283440;28;20127;-73
2023/07/14 06:44:32;;;;;;;8.57;5.00;;;;;;;17.44;84.99;101479.50;5284498;28;20082;-73
2023/07/14 06:47:04;;;;;;;5.03;4.10;;;;;;;17.38;82.29;101485.78;5281433;28;20039;-72
2023/07/14 06:49:35;;;;;;;7.43;4.20;;;;;;;17.27;80.90;101478.19;5283742;28;20028;-72
2023/07/14 06:52:07;;;;;;;9.87;4.40;;;;;;;17.55;nan;101471.22;5283139;28;20398;-72
2023/07/14 06:54:39;;;;;;;10.30;4.30;;;;;;;17.70;81.34;101481.31;5282878;28;20040;-74
2023/07/14 06:57:11;;;;;;;11.10;4.10;;;;;;;17.93;78.78;101487.66;5283354;28;20035;-73
2023/07/14 06:59:42;;;;;;;7.43;3.43;;;;;;;17.79;77.18;101465.22;5284122;28;20021;-73
2023/07/14 07:02:14;;;;;;;7.77;4.00;;;;;;;17.85;79.08;101459.75;5281575;28;20293;-73
2023/07/14 07:04:46;;;;;;;7.88;3.67;;;;;;;17.85;75.81;101464.13;5283729;28;20020;-74
2023/07/14 07:07:17;;;;;;;6.97;3.80;;;;;;;17.97;76.06;101473.47;5276525;28;20029;-73
2023/07/14 07:09:49;;;;;;;9.03;3.53;;;;;;;17.75;73.81;101468.00;5283430;28;20040;-74
2023/07/14 07:12:22;;;;;;;8.63;3.53;;;;;;;17.83;76.56;101460.69;5282914;28;20060;-73
2023/07/14 07:14:53;;;;;;;9.73;4.95;;;;;;;17.83;79.76;101450.13;5282462;28;20039;-73
2023/07/14 07:17:25;;;;;;;7.27;3.67;;;;;;;17.84;78.08;101452.72;5283209;28;20384;-74
2023/07/14 07:19:56;;;;;;;13.87;4.30;;;;;;;17.81;77.56;101455.47;5282974;28;20045;-73
2023/07/14 07:22:28;;;;;;;7.90;3.47;;;;;;;17.81;74.39;101450.19;5281910;28;20032;-76
2023/07/14 07:24:59;;;;;;;5.40;3.53;;;;;;;18.04;75.33;101441.53;5283406;28;20032;-72
2023/07/14 07:27:31;;;;;;;8.10;4.23;;;;;;;18.20;79.09;101444.53;5281458;28;20039;-73
2023/07/14 07:30:03;;;;;;;5.40;3.20;;;;;;;18.30;77.35;101439.78;5282299;28;20036;-74
2023/07/14 07:32:36;;;;;;;5.95;3.20;;;;;;;18.44;77.79;101443.75;5280292;28;20112;-73
2023/07/14 07:35:08;;;;;;;8.48;3.80;;;;;;;18.22;74.33;101448.00;5283563;28;20051;-72
2023/07/14 07:37:40;;;;;;;9.40;3.70;;;;;;;18.21;74.94;101451.53;5281223;28;20032;-74
2023/07/14 07:40:11;;;;;;;5.73;3.50;;;;;;;18.16;72.08;101442.03;5283659;28;20029;-74
2023/07/14 07:42:43;;;;;;;7.22;2.97;;;;;;;18.23;72.79;101438.28;5281814;28;20060;-72
2023/07/14 07:45:16;;;;;;;5.83;3.23;;;;;;;18.36;71.78;101439.59;5283556;28;20133;-72
2023/07/14 07:47:50;;;;;;;5.38;2.85;;;;;;;18.38;72.30;101442.16;5282822;28;20027;-73
2023/07/14 07:50:22;;;;;;;7.95;2.80;;;;;;;18.50;71.68;101439.09;5282980;28;20485;-73
2023/07/14 07:52:54;;;;;;;;;;;;;;;18.75;69.21;101451.41;5283426;28;20174;-73
2023/07/14 07:55:25;;;;;;;4.95;2.85;;;;;;;18.50;71.23;101436.47;5283747;28;19999;-73
2023/07/14 07:57:57;;;;;;;5.67;3.07;;;;;;;18.58;69.12;101439.69;5282942;28;20120;-72
2023/07/14 08:00:28;;;;;;;5.70;2.70;;;;;;;18.63;69.39;101441.28;5283616;28;20055;-72
2023/07/14 08:03:00;;;;;;;6.93;2.70;;;;;;;18.48;68.15;101440.06;5283056;28;20028;-74
2023/07/14 08:05:31;;;;;;;6.27;3.13;;;;;;;18.39;70.61;101425.44;5283207;28;20060;-74
2023/07/14 08:08:02;;;;;;;5.00;2.70;;;;;;;18.49;70.25;101433.88;5282521;28;20036;-73
2023/07/14 08:10:41;;;;;;;5.97;2.70;;;;;;;18.64;73.65;101420.09;5283589;28;20119;-72
2023/07/14 08:13:15;;;;;;;7.40;2.85;;;;;;;18.76;69.38;101422.31;5282908;28;20337;-73
2023/07/14 08:15:46;;;;;;;6.45;2.95;;;;;;;18.89;68.93;101428.03;5283854;28;20044;-72
2023/07/14 08:18:18;;;;;;;5.33;3.20;;;;;;;18.67;67.20;101430.56;5282464;28;20028;-72
2023/07/14 08:20:49;;;;;;;4.07;2.83;;;;;;;18.62;68.72;101429.88;5281435;28;20056;-73
2023/07/14 08:23:23;;;;;;;5.85;2.83;;;;;;;18.80;70.20;101424.84;5282220;28;20459;-73
2023/07/14 08:25:57;;;;;;;5.88;3.00;;;;;;;18.76;66.94;101424.09;5282867;28;20028;-73
2023/07/14 08:28:30;;;;;;;6.80;2.72;;;;;;;18.78;67.39;101423.09;5280798;28;20024;-73
2023/07/14 08:31:02;;;;;;;;;;;;;;;19.12;66.39;101439.50;5283321;28;20024;-73
2023/07/14 08:33:35;;;;;;;4.68;2.45;;;;;;;19.01;64.84;101431.13;5281857;28;19908;-73
2023/07/14 08:36:06;;;;;;;5.47;3.10;;;;;;;19.07;67.82;101415.91;5282760;28;20036;-73
2023/07/14 08:38:39;;;;;;;7.23;3.33;;;;;;;19.25;67.61;101424.91;5281601;28;20044;-73
2023/07/14 08:41:29;;;;;;;5.43;2.60;;;;;;;19.55;67.43;101426.41;5282516;28;20025;-72
2023/07/14 08:44:18;;;;;;;6.20;2.65;;;;;;;19.26;63.29;101423.97;5281197;28;20082;-72
2023/07/14 08:47:04;;;;;;;5.22;3.05;;;;;;;19.26;64.07;101418.69;5284341;28;20372;-72
2023/07/14 08:50:01;;;;;;;5.53;2.70;;;;;;;19.39;62.99;101423.50;5286699;28;20328;-72
2023/07/14 08:52:38;;;;;;;5.50;2.67;;;;;;;19.44;62.94;101419.75;5286016;28;20017;-72
2023/07/14 08:55:26;;;;;;;5.88;2.45;;;;;;;19.81;63.19;101414.78;5302472;28;20108;-73
2023/07/14 08:58:04;;;;;;;4.70;2.63;;;;;;;19.99;61.95;101411.34;5286187;28;20146;-72
2023/07/14 09:00:38;;;;;;;3.58;2.50;;;;;;;20.01;60.09;101409.53;5287229;28;20355;-74
2023/07/14 09:03:28;;;;;;;5.07;2.53;;;;;;;20.12;63.41;101403.75;5286169;28;20024;-73
2023/07/14 09:06:10;;;;;;;7.22;3.30;;;;;;;20.11;60.36;101401.19;5286867;28;20020;-72
2023/07/14 09:08:42;;;;;;;5.15;2.92;;;;;;;20.11;59.56;101399.41;5285802;28;20046;-70
2023/07/14 09:11:16;;;;;;;5.25;2.35;;;;;;;20.14;62.84;101404.56;5286773;28;20341;-73
2023/07/14 09:14:01;;;;;;;6.20;2.53;;;;;;;20.35;61.14;101397.47;5285720;28;20029;-73
2023/07/14 09:16:38;;;;;;;5.78;2.72;;;;;;;20.58;61.98;101395.59;5285493;28;20032;-73
2023/07/14 09:19:26;;;;;;;5.82;3.20;;;;;;;21.03;59.81;101389.13;5285836;28;20028;-73
2023/07/14 09:22:03;;;;;;;6.05;2.72;;;;;;;20.86;58.85;101391.72;5285908;28;20024;-73
2023/07/14 09:24:40;;;;;;;6.03;3.20;;;;;;;20.74;58.05;101393.16;5286442;28;20032;-73
2023/07/14 09:27:21;;;;;;;3.95;2.65;;;;;;;20.89;58.42;101383.63;5285045;28;20025;-72
2023/07/14 09:29:54;;;;;;;6.38;2.42;;;;;;;20.96;58.62;101379.72;5286341;28;20040;-72
2023/07/14 09:32:39;;;;;;;6.13;2.72;;;;;;;21.15;61.48;101379.72;5285586;28;20440;-73
2023/07/14 09:35:19;;;;;;;4.93;2.42;;;;;;;21.33;57.99;101374.47;5285848;28;20024;-74
2023/07/14 09:38:05;;;;;;;7.05;2.90;;;;;;;21.46;56.01;101359.66;5285279;28;20028;-74
2023/07/14 09:40:41;;;;;;;9.25;3.05;;;;;;;21.77;59.17;101363.50;5286184;28;20439;-73
2023/07/14 09:43:12;;;;;;;6.38;3.00;;;;;;;22.16;62.66;101375.66;5285050;28;20400;-71
2023/07/14 09:45:44;;;;;;;7.60;3.80;;;;;;;22.16;54.99;101365.03;5286035;28;20107;-72
2023/07/14 09:48:26;;;;;;;6.45;2.88;;;;;;;22.64;55.99;101365.19;5277901;28;20033;-73
2023/07/14 09:51:10;;;;;;;6.47;2.92;;;;;;;22.61;53.96;101355.59;5285109;28;20593;-71
2023/07/14 09:53:59;;;;;;;8.52;3.05;;;;;;;22.65;55.40;101359.78;5282845;28;20033;-72
2023/07/14 09:56:36;;;;;;;7.22;3.20;;;;;;;22.65;55.36;101358.91;5283602;28;20036;-72
2023/07/14 09:59:22;;;;;;;4.32;2.58;;;;;;;22.54;56.67;101362.16;5285224;28;20103;-72
2023/07/14 10:02:01;;;;;;;6.40;2.97;;;;;;;22.55;57.21;101355.91;5282729;28;20127;-71
2023/07/14 10:04:36;;;;;;;6.03;3.05;;;;;;;22.65;54.18;101348.28;5283154;28;20036;-72
2023/07/14 10:07:25;;;;;;;4.15;2.50;;;;;;;22.82;55.63;101337.59;5264480;28;20429;-70
2023/07/14 10:10:07;;;;;;;9.27;3.10;;;;;;;22.76;58.88;101335.28;5264560;28;20430;-71
2023/07/14 10:12:44;;;;;;;7.70;2.92;;;;;;;22.64;53.72;101326.19;5264007;28;20040;-70
2023/07/14 10:15:34;;;;;;;5.03;2.80;;;;;;;22.66;55.21;101326.94;5264061;28;20025;-71
2023/07/14 10:18:13;;;;;;;5.32;2.50;;;;;;;22.53;57.78;101315.28;5263636;28;20415;-71
2023/07/14 10:21:06;;;;;;;5.78;2.90;;;;;;;23.10;58.54;101298.84;5263859;28;20456;-71
2023/07/14 10:23:37;;;;;;;4.90;2.80;;;;;;;22.97;52.48;101309.28;5264728;28;20021;-71
2023/07/14 10:26:10;;;;;;;5.27;2.50;;;;;;;23.11;52.41;101305.88;5284566;28;20047;-70
2023/07/14 10:28:47;;;;;;;5.00;2.53;;;;;;;22.67;50.10;101310.06;5284205;28;20115;-69
2023/07/14 10:31:37;;;;;;;3.78;2.40;;;;;;;22.87;55.91;101298.31;5284961;28;20099;-70
2023/07/14 10:34:14;;;;;;;6.55;2.42;;;;;;;22.99;50.05;101286.16;5284721;28;20029;-70
2023/07/14 10:36:46;;;;;;;5.75;2.75;;;;;;;23.12;50.48;101287.19;5284689;28;20027;-71
2023/07/14 10:39:36;;;;;;;6.57;2.72;;;;;;;23.84;52.28;101282.09;5283984;28;20048;-71
2023/07/14 10:42:15;;;;;;;5.22;2.60;;;;;;;23.89;52.71;101273.78;5281536;28;20074;-72
2023/07/14 10:44:48;;;;;;;6.30;3.00;;;;;;;24.49;52.60;101264.75;5281637;28;20047;-72
2023/07/14 10:47:27;;;;;;;3.72;2.15;;;;;;;24.84;50.28;101277.66;5284283;28;20059;-71
2023/07/14 10:50:16;;;;;;;4.35;3.17;;;;;;;24.71;45.85;101274.94;5284489;28;20024;-71
2023/07/14 10:53:06;;;;;;;5.43;2.63;;;;;;;24.07;44.79;101262.97;5283954;28;20082;-71
2023/07/14 10:55:39;;;;;;;5.75;3.42;;;;;;;24.44;46.27;101256.19;5284143;28;20043;-71
2023/07/14 10:58:46;;;;;;;5.50;3.17;;;;;;;24.61;50.19;101256.94;5283797;28;20513;-72
2023/07/14 11:01:58;;;;;;;3.95;2.40;;;;;;;24.13;45.86;101265.25;5273317;28;20036;-72
2023/07/14 11:04:34;;;;;;;5.35;2.50;;;;;;;23.56;46.62;101258.06;5284251;28;20024;-71
2023/07/14 11:07:10;;;;;;;8.05;2.60;;;;;;;23.38;47.71;101257.34;5283334;28;20115;-70
2023/07/14 11:09:41;;;;;;;5.40;2.88;;;;;;;23.44;47.68;101254.31;5284306;28;20033;-71
2023/07/14 11:12:32;;;;;;;5.43;2.37;;;;;;;23.85;47.68;101243.00;5283467;28;20055;-72
2023/07/14 11:15:12;;;;;;;9.00;3.03;;;;;;;24.15;51.51;101231.38;5283875;28;20020;-72
2023/07/14 11:18:13;;;;;;;5.47;2.35;;;;;;;23.90;47.44;101219.63;5283320;28;20029;-72
2023/07/14 11:21:19;;;;;;;6.72;2.70;;;;;;;24.27;50.90;101211.13;5283369;28;20476;-72
2023/07/14 11:24:12;;;;;;;7.20;2.92;;;;;;;24.15;47.58;101210.06;5282982;28;20033;-72
2023/07/14 11:26:46;;;;;;;6.38;2.58;;;;;;;24.12;51.12;101203.16;5283120;28;20058;-71
2023/07/14 11:29:20;;;;;;;4.40;2.72;;;;;;;24.67;53.52;101206.75;5283811;28;20112;-72
2023/07/14 11:31:56;;;;;;;4.90;2.58;;;;;;;25.40;45.41;101208.13;5283112;28;20028;-70
2023/07/14 11:34:42;;;;;;;5.00;2.55;;;;;;;25.56;45.79;101210.59;5283424;28;20028;-71
2023/07/14 11:37:43;;;;;;;6.55;2.45;;;;;;;25.82;46.72;101210.59;5282958;28;20040;-71
2023/07/14 11:40:21;;;;;;;5.07;2.63;;;;;;;25.65;45.18;101207.28;5283556;28;20052;-70
2023/07/14 11:42:58;;;;;;;5.25;2.72;;;;;;;25.88;45.56;101195.97;5282761;28;20093;-72
2023/07/14 11:45:33;;;;;;;7.20;2.85;;;;;;;26.23;42.53;101197.94;5283762;28;20456;-71
2023/07/14 11:48:05;;;;;;;5.05;2.60;;;;;;;26.83;43.32;101182.88;5283000;28;20062;-72
2023/07/14 11:50:37;;;;;;;6.25;3.22;;;;;;;27.42;40.62;101182.81;5282855;28;20040;-71
2023/07/14 11:53:21;;;;;;;6.70;2.42;;;;;;;27.80;42.38;101183.44;5283008;28;20578;-72
2023/07/14 11:56:14;;;;;;;6.38;2.88;;;;;;;28.88;40.95;101170.19;5283617;28;20364;-73
2023/07/14 11:58:45;;;;;;;7.03;2.80;;;;;;;29.14;38.61;101168.94;5282500;28;20020;-72